sensor_id;sensor_type;location;lat;lon;timestamp;pressure;altitude;pressure_sealevel;temperature;humidity
72677;BME280;60755;51.374;10.662;2023-04-01T00:01:20;95337.59;;;7.88;100.00
72677;BME280;60755;51.374;10.662;2023-04-01T00:03:46;95346.22;;;7.88;100.00
72677;BME280;60755;51.374;10.662;2023-04-01T00:06:15;95342.28;;;7.96;100.00
72677;BME280;60755;51.374;10.662;2023-04-01T00:08:43;95344.63;;;8.02;100.00
72677;BME280;60755;51.374;10.662;2023-04-01T00:11:10;95340.97;;;8.03;100.00
72677;BME280;60755;51.374;10.662;2023-04-01T00:13:37;95340.44;;;8.11;100.00
72677;BME280;60755;51.374;10.662;2023-04-01T00:16:05;95338.34;;;7.98;100.00
72677;BME280;60755;51.374;10.662;2023-04-01T00:18:34;95337.56;;;8.03;100.00
72677;BME280;60755;51.374;10.662;2023-04-01T00:21:01;95329.69;;;8.08;100.00
72677;BME280;60755;51.374;10.662;2023-04-01T00:23:27;95337.03;;;8.06;100.00
72677;BME280;60755;51.374;10.662;2023-04-01T00:25:54;95337.03;;;8.06;100.00
72677;BME280;60755;51.374;10.662;2023-04-01T00:28:21;95334.97;;;7.98;100.00
72677;BME280;60755;51.374;10.662;2023-04-01T00:30:48;95339.88;;;8.09;100.00
72677;BME280;60755;51.374;10.662;2023-04-01T00:33:15;95336.25;;;8.00;100.00
72677;BME280;60755;51.374;10.662;2023-04-01T00:35:44;95332.59;;;8.01;100.00
72677;BME280;60755;51.374;10.662;2023-04-01T00:38:11;95340.47;;;7.96;100.00
72677;BME280;60755;51.374;10.662;2023-04-01T00:40:41;95343.31;;;8.05;100.00
72677;BME280;60755;51.374;10.662;2023-04-01T00:43:11;95337.56;;;8.03;100.00
72677;BME280;60755;51.374;10.662;2023-04-01T00:45:40;95334.41;;;8.01;100.00
72677;BME280;60755;51.374;10.662;2023-04-01T00:48:11;95334.41;;;8.06;100.00
72677;BME280;60755;51.374;10.662;2023-04-01T00:50:44;95330.75;;;8.07;100.00
72677;BME280;60755;51.374;10.662;2023-04-01T00:53:12;95338.13;;;7.95;100.00
72677;BME280;60755;51.374;10.662;2023-04-01T00:55:43;95326.56;;;8.01;100.00
72677;BME280;60755;51.374;10.662;2023-04-01T00:58:15;95329.19;;;8.01;100.00
72677;BME280;60755;51.374;10.662;2023-04-01T01:00:45;95338.09;;;8.05;100.00
72677;BME280;60755;51.374;10.662;2023-04-01T01:03:13;95329.19;;;8.01;100.00
72677;BME280;60755;51.374;10.662;2023-04-01T01:05:56;95329.72;;;8.03;100.00
72677;BME280;60755;51.374;10.662;2023-04-01T01:08:33;95329.72;;;7.98;100.00
72677;BME280;60755;51.374;10.662;2023-04-01T01:11:05;95330.75;;;8.02;100.00
72677;BME280;60755;51.374;10.662;2023-04-01T01:13:40;95329.22;;;7.96;100.00
72677;BME280;60755;51.374;10.662;2023-04-01T01:16:15;95336.00;;;7.97;100.00
72677;BME280;60755;51.374;10.662;2023-04-01T01:18:50;95333.63;;;8.05;100.00
72677;BME280;60755;51.374;10.662;2023-04-01T01:21:31;95328.41;;;8.05;100.00
72677;BME280;60755;51.374;10.662;2023-04-01T01:24:11;95326.56;;;8.01;100.00
72677;BME280;60755;51.374;10.662;2023-04-01T01:26:46;95332.06;;;8.04;100.00
72677;BME280;60755;51.374;10.662;2023-04-01T01:29:29;95329.22;;;7.96;100.00
72677;BME280;60755;51.374;10.662;2023-04-01T01:32:03;95317.44;;;7.98;100.00
72677;BME280;60755;51.374;10.662;2023-04-01T01:34:35;95324.00;;;7.96;100.00
72677;BME280;60755;51.374;10.662;2023-04-01T01:37:08;95333.41;;;7.97;100.00
72677;BME280;60755;51.374;10.662;2023-04-01T01:39:37;95326.59;;;7.91;100.00
72677;BME280;60755;51.374;10.662;2023-04-01T01:42:08;95327.66;;;7.90;100.00
72677;BME280;60755;51.374;10.662;2023-04-01T01:44:38;95329.22;;;7.85;100.00
72677;BME280;60755;51.374;10.662;2023-04-01T01:47:07;95322.44;;;7.90;100.00
72677;BME280;60755;51.374;10.662;2023-04-01T01:49:35;95324.00;;;7.96;100.00
72677;BME280;60755;51.374;10.662;2023-04-01T01:52:04;95320.84;;;7.89;100.00
72677;BME280;60755;51.374;10.662;2023-04-01T01:54:31;95329.50;;;7.89;100.00
72677;BME280;60755;51.374;10.662;2023-04-01T01:57:03;95328.72;;;7.89;100.00
72677;BME280;60755;51.374;10.662;2023-04-01T01:59:33;95330.81;;;7.81;100.00
72677;BME280;60755;51.374;10.662;2023-04-01T02:02:02;95332.38;;;7.77;100.00
72677;BME280;60755;51.374;10.662;2023-04-01T02:04:34;95332.13;;;7.79;100.00
72677;BME280;60755;51.374;10.662;2023-04-01T02:07:05;95327.91;;;7.78;100.00
72677;BME280;60755;51.374;10.662;2023-04-01T02:09:34;95334.97;;;7.82;100.00
72677;BME280;60755;51.374;10.662;2023-04-01T02:12:04;95326.34;;;7.82;100.00
72677;BME280;60755;51.374;10.662;2023-04-01T02:14:39;95330.28;;;7.79;100.00
72677;BME280;60755;51.374;10.662;2023-04-01T02:17:10;95325.56;;;7.81;100.00
72677;BME280;60755;51.374;10.662;2023-04-01T02:19:39;95327.66;;;7.74;100.00
72677;BME280;60755;51.374;10.662;2023-04-01T02:22:12;95338.13;;;7.74;100.00
72677;BME280;60755;51.374;10.662;2023-04-01T02:24:41;95321.16;;;7.72;100.00
72677;BME280;60755;51.374;10.662;2023-04-01T02:27:32;95324.28;;;7.69;100.00
72677;BME280;60755;51.374;10.662;2023-04-01T02:30:00;95326.63;;;7.60;100.00
72677;BME280;60755;51.374;10.662;2023-04-01T02:32:27;95328.19;;;7.61;100.00
72677;BME280;60755;51.374;10.662;2023-04-01T02:34:56;95330.81;;;7.66;100.00
72677;BME280;60755;51.374;10.662;2023-04-01T02:37:27;95328.47;;;7.60;100.00
72677;BME280;60755;51.374;10.662;2023-04-01T02:39:53;95324.56;;;7.62;100.00
72677;BME280;60755;51.374;10.662;2023-04-01T02:42:20;95324.81;;;7.61;100.00
72677;BME280;60755;51.374;10.662;2023-04-01T02:44:48;95330.31;;;7.59;100.00
72677;BME280;60755;51.374;10.662;2023-04-01T02:47:15;95332.66;;;7.61;100.00
72677;BME280;60755;51.374;10.662;2023-04-01T02:49:42;95325.59;;;7.56;100.00
72677;BME280;60755;51.374;10.662;2023-04-01T02:52:09;95330.81;;;7.51;100.00
72677;BME280;60755;51.374;10.662;2023-04-01T02:54:38;95329.25;;;7.50;100.00
72677;BME280;60755;51.374;10.662;2023-04-01T02:57:05;95325.59;;;7.56;100.00
72677;BME280;60755;51.374;10.662;2023-04-01T02:59:32;95332.66;;;7.50;100.00
72677;BME280;60755;51.374;10.662;2023-04-01T03:01:59;95332.38;;;7.52;100.00
72677;BME280;60755;51.374;10.662;2023-04-01T03:04:26;95335.00;;;7.57;100.00
72677;BME280;60755;51.374;10.662;2023-04-01T03:06:53;95328.75;;;7.63;100.00
72677;BME280;60755;51.374;10.662;2023-04-01T03:09:20;95336.34;;;7.54;100.00
72677;BME280;60755;51.374;10.662;2023-04-01T03:11:49;95338.16;;;7.59;100.00
72677;BME280;60755;51.374;10.662;2023-04-01T03:14:16;95330.84;;;7.56;100.00
72677;BME280;60755;51.374;10.662;2023-04-01T03:16:43;95330.03;;;7.61;100.00
72677;BME280;60755;51.374;10.662;2023-04-01T03:19:23;95336.06;;;7.56;100.00
72677;BME280;60755;51.374;10.662;2023-04-01T03:21:50;95337.63;;;7.57;100.00
72677;BME280;60755;51.374;10.662;2023-04-01T03:24:17;95332.41;;;7.57;100.00
72677;BME280;60755;51.374;10.662;2023-04-01T03:26:44;95341.03;;;7.57;100.00
72677;BME280;60755;51.374;10.662;2023-04-01T03:29:12;95341.28;;;7.56;100.00
72677;BME280;60755;51.374;10.662;2023-04-01T03:31:41;95336.56;;;7.58;100.00
72677;BME280;60755;51.374;10.662;2023-04-01T03:34:08;95335.28;;;7.55;100.00
72677;BME280;60755;51.374;10.662;2023-04-01T03:36:36;95333.97;;;7.58;100.00
72677;BME280;60755;51.374;10.662;2023-04-01T03:39:03;95337.09;;;7.50;100.00
72677;BME280;60755;51.374;10.662;2023-04-01T03:41:38;95337.63;;;7.52;100.00
72677;BME280;60755;51.374;10.662;2023-04-01T03:44:06;95339.72;;;7.55;100.00
72677;BME280;60755;51.374;10.662;2023-04-01T03:46:34;95345.72;;;7.61;100.00
72677;BME280;60755;51.374;10.662;2023-04-01T03:49:02;95344.16;;;7.54;100.00
72677;BME280;60755;51.374;10.662;2023-04-01T03:51:29;95346.78;;;7.49;100.00
72677;BME280;60755;51.374;10.662;2023-04-01T03:53:56;95340.22;;;7.52;100.00
72677;BME280;60755;51.374;10.662;2023-04-01T03:56:23;95341.78;;;7.53;100.00
72677;BME280;60755;51.374;10.662;2023-04-01T03:58:50;95349.13;;;7.51;100.00
72677;BME280;60755;51.374;10.662;2023-04-01T04:01:19;95346.78;;;7.49;100.00
72677;BME280;60755;51.374;10.662;2023-04-01T04:03:50;95345.47;;;7.47;100.00
72677;BME280;60755;51.374;10.662;2023-04-01T04:06:18;95345.22;;;7.48;100.00
72677;BME280;60755;51.374;10.662;2023-04-01T04:08:46;95355.66;;;7.43;100.00
72677;BME280;60755;51.374;10.662;2023-04-01T04:11:13;95355.38;;;7.45;100.00
72677;BME280;60755;51.374;10.662;2023-04-01T04:13:42;95350.16;;;7.45;100.00
72677;BME280;60755;51.374;10.662;2023-04-01T04:16:10;95359.03;;;7.44;100.00
72677;BME280;60755;51.374;10.662;2023-04-01T04:18:42;95361.41;;;7.50;100.00
72677;BME280;60755;51.374;10.662;2023-04-01T04:21:13;95358.78;;;7.45;100.00
72677;BME280;60755;51.374;10.662;2023-04-01T04:23:41;95360.09;;;7.43;100.00
72677;BME280;60755;51.374;10.662;2023-04-01T04:26:10;95359.84;;;7.44;100.00
72677;BME280;60755;51.374;10.662;2023-04-01T04:28:38;95364.56;;;7.47;100.00
72677;BME280;60755;51.374;10.662;2023-04-01T04:31:05;95364.81;;;7.41;100.00
72677;BME280;60755;51.374;10.662;2023-04-01T04:33:35;95359.03;;;7.44;100.00
72677;BME280;60755;51.374;10.662;2023-04-01T04:36:03;95364.81;;;7.41;100.00
72677;BME280;60755;51.374;10.662;2023-04-01T04:38:32;95354.88;;;7.43;100.00
72677;BME280;60755;51.374;10.662;2023-04-01T04:40:59;95365.84;;;7.45;100.00
72677;BME280;60755;51.374;10.662;2023-04-01T04:43:26;95362.97;;;7.36;100.00
72677;BME280;60755;51.374;10.662;2023-04-01T04:45:55;95360.38;;;7.41;100.00
72677;BME280;60755;51.374;10.662;2023-04-01T04:48:22;95362.44;;;7.34;100.00
72677;BME280;60755;51.374;10.662;2023-04-01T04:50:50;95368.19;;;7.36;100.00
72677;BME280;60755;51.374;10.662;2023-04-01T04:53:19;95363.75;;;7.37;100.00
72677;BME280;60755;51.374;10.662;2023-04-01T04:55:49;95363.50;;;7.33;100.00
72677;BME280;60755;51.374;10.662;2023-04-01T04:58:31;95362.19;;;7.36;100.00
72677;BME280;60755;51.374;10.662;2023-04-01T05:01:05;95359.31;;;7.32;100.00
72677;BME280;60755;51.374;10.662;2023-04-01T05:03:32;95365.84;;;7.40;100.00
72677;BME280;60755;51.374;10.662;2023-04-01T05:05:59;95364.53;;;7.32;100.00
72677;BME280;60755;51.374;10.662;2023-04-01T05:08:26;95371.34;;;7.33;100.00
72677;BME280;60755;51.374;10.662;2023-04-01T05:10:55;95367.41;;;7.46;100.00
72677;BME280;60755;51.374;10.662;2023-04-01T05:13:22;95375.00;;;7.32;100.00
72677;BME280;60755;51.374;10.662;2023-04-01T05:15:49;95376.03;;;7.36;100.00
72677;BME280;60755;51.374;10.662;2023-04-01T05:18:16;95377.34;;;7.39;100.00
72677;BME280;60755;51.374;10.662;2023-04-01T05:20:46;95379.69;;;7.40;100.00
72677;BME280;60755;51.374;10.662;2023-04-01T05:23:14;95378.91;;;7.40;100.00
72677;BME280;60755;51.374;10.662;2023-04-01T05:25:41;95385.97;;;7.44;100.00
72677;BME280;60755;51.374;10.662;2023-04-01T05:28:11;95382.31;;;7.45;100.00
72677;BME280;60755;51.374;10.662;2023-04-01T05:30:40;95387.28;;;7.47;100.00
72677;BME280;60755;51.374;10.662;2023-04-01T05:33:21;95381.00;;;7.43;100.00
72677;BME280;60755;51.374;10.662;2023-04-01T05:35:48;95384.13;;;7.35;100.00
72677;BME280;60755;51.374;10.662;2023-04-01T05:38:15;95380.47;;;7.46;100.00
72677;BME280;60755;51.374;10.662;2023-04-01T05:40:42;95375.78;;;7.43;100.00
72677;BME280;60755;51.374;10.662;2023-04-01T05:43:09;95382.06;;;7.57;100.00
72677;BME280;60755;51.374;10.662;2023-04-01T05:45:37;95380.75;;;7.54;100.00
72677;BME280;60755;51.374;10.662;2023-04-01T05:48:13;95379.44;;;7.52;100.00
72677;BME280;60755;51.374;10.662;2023-04-01T05:50:41;95385.97;;;7.44;100.00
72677;BME280;60755;51.374;10.662;2023-04-01T05:53:09;95388.34;;;7.56;100.00
72677;BME280;60755;51.374;10.662;2023-04-01T05:55:38;95384.69;;;7.57;100.00
72677;BME280;60755;51.374;10.662;2023-04-01T05:58:05;95382.31;;;7.55;100.00
72677;BME280;60755;51.374;10.662;2023-04-01T06:00:34;95388.59;;;7.65;100.00
72677;BME280;60755;51.374;10.662;2023-04-01T06:03:02;95388.84;;;7.73;100.00
72677;BME280;60755;51.374;10.662;2023-04-01T06:05:35;95395.91;;;7.78;100.00
72677;BME280;60755;51.374;10.662;2023-04-01T06:08:08;95392.25;;;7.84;100.00
72677;BME280;60755;51.374;10.662;2023-04-01T06:10:44;95397.72;;;7.77;100.00
72677;BME280;60755;51.374;10.662;2023-04-01T06:13:24;95401.91;;;8.04;100.00
72677;BME280;60755;51.374;10.662;2023-04-01T06:16:00;95401.88;;;8.09;100.00
72677;BME280;60755;51.374;10.662;2023-04-01T06:18:45;95401.91;;;8.19;100.00
72677;BME280;60755;51.374;10.662;2023-04-01T06:21:42;95398.47;;;8.24;100.00
72677;BME280;60755;51.374;10.662;2023-04-01T06:24:31;95398.97;;;8.31;100.00
72677;BME280;60755;51.374;10.662;2023-04-01T06:27:14;95399.19;;;8.55;100.00
72677;BME280;60755;51.374;10.662;2023-04-01T06:29:56;95398.09;;;8.71;98.16
72677;BME280;60755;51.374;10.662;2023-04-01T06:32:33;95398.53;;;8.88;96.50
72677;BME280;60755;51.374;10.662;2023-04-01T06:35:29;95405.84;;;8.96;98.23
72677;BME280;60755;51.374;10.662;2023-04-01T06:38:19;95407.38;;;9.08;95.51
72677;BME280;60755;51.374;10.662;2023-04-01T06:43:59;95404.78;;;9.03;97.59
72677;BME280;60755;51.374;10.662;2023-04-01T06:47:20;95416.47;;;9.20;96.47
72677;BME280;60755;51.374;10.662;2023-04-01T06:50:21;95417.22;;;9.31;94.92
72677;BME280;60755;51.374;10.662;2023-04-01T06:53:15;95415.56;;;9.40;95.20
72677;BME280;60755;51.374;10.662;2023-04-01T06:56:15;95413.75;;;9.36;94.18
72677;BME280;60755;51.374;10.662;2023-04-01T06:59:08;95418.91;;;9.07;96.71
72677;BME280;60755;51.374;10.662;2023-04-01T07:01:40;95414.38;;;9.22;95.43
72677;BME280;60755;51.374;10.662;2023-04-01T07:04:13;95425.28;;;9.40;95.38
72677;BME280;60755;51.374;10.662;2023-04-01T07:06:46;95420.13;;;9.24;95.56
72677;BME280;60755;51.374;10.662;2023-04-01T07:09:18;95420.56;;;9.37;95.48
72677;BME280;60755;51.374;10.662;2023-04-01T07:12:12;95420.25;;;9.48;93.25
72677;BME280;60755;51.374;10.662;2023-04-01T07:15:05;95423.94;;;9.47;93.08
72677;BME280;60755;51.374;10.662;2023-04-01T07:17:41;95418.34;;;9.54;91.98
72677;BME280;60755;51.374;10.662;2023-04-01T07:20:16;95426.16;;;9.25;94.18
72677;BME280;60755;51.374;10.662;2023-04-01T07:22:45;95429.13;;;9.52;92.04
72677;BME280;60755;51.374;10.662;2023-04-01T07:25:33;95437.41;;;9.25;93.71
72677;BME280;60755;51.374;10.662;2023-04-01T07:28:19;95429.31;;;9.61;91.73
72677;BME280;60755;51.374;10.662;2023-04-01T07:31:07;95428.72;;;9.74;90.56
72677;BME280;60755;51.374;10.662;2023-04-01T07:33:42;95437.56;;;9.44;92.02
72677;BME280;60755;51.374;10.662;2023-04-01T07:36:16;95440.22;;;9.39;92.69
72677;BME280;60755;51.374;10.662;2023-04-01T07:38:54;95443.84;;;9.48;92.69
72677;BME280;60755;51.374;10.662;2023-04-01T07:41:50;95440.25;;;9.34;92.16
72677;BME280;60755;51.374;10.662;2023-04-01T07:44:25;95439.00;;;9.66;92.73
72677;BME280;60755;51.374;10.662;2023-04-01T07:47:02;95445.50;;;10.07;89.89
72677;BME280;60755;51.374;10.662;2023-04-01T07:49:37;95447.72;;;9.95;89.51
72677;BME280;60755;51.374;10.662;2023-04-01T07:52:13;95446.13;;;9.94;89.31
72677;BME280;60755;51.374;10.662;2023-04-01T07:54:50;95449.97;;;9.73;91.78
72677;BME280;60755;51.374;10.662;2023-04-01T07:57:23;95452.38;;;10.03;90.79
72677;BME280;60755;51.374;10.662;2023-04-01T07:59:59;95445.63;;;10.26;88.68
72677;BME280;60755;51.374;10.662;2023-04-01T08:02:54;95442.72;;;10.57;88.36
72677;BME280;60755;51.374;10.662;2023-04-01T08:05:28;95446.50;;;10.46;88.11
72677;BME280;60755;51.374;10.662;2023-04-01T08:08:05;95449.34;;;10.49;88.08
72677;BME280;60755;51.374;10.662;2023-04-01T08:10:58;95453.00;;;10.53;88.40
72677;BME280;60755;51.374;10.662;2023-04-01T08:13:55;95452.44;;;10.80;88.64
72677;BME280;60755;51.374;10.662;2023-04-01T08:16:51;95449.03;;;11.04;88.99
72677;BME280;60755;51.374;10.662;2023-04-01T08:19:40;95450.88;;;10.79;86.96
72677;BME280;60755;51.374;10.662;2023-04-01T08:22:15;95452.53;;;11.18;85.86
72677;BME280;60755;51.374;10.662;2023-04-01T08:24:46;95457.69;;;11.04;85.92
72677;BME280;60755;51.374;10.662;2023-04-01T08:27:26;95458.44;;;11.29;86.34
72677;BME280;60755;51.374;10.662;2023-04-01T08:29:59;95455.53;;;11.68;83.59
72677;BME280;60755;51.374;10.662;2023-04-01T08:32:34;95459.13;;;11.96;82.84
72677;BME280;60755;51.374;10.662;2023-04-01T08:35:09;95462.59;;;11.91;83.83
72677;BME280;60755;51.374;10.662;2023-04-01T08:37:43;95458.88;;;12.11;82.39
72677;BME280;60755;51.374;10.662;2023-04-01T08:40:37;95456.56;;;12.23;80.25
72677;BME280;60755;51.374;10.662;2023-04-01T08:43:12;95455.53;;;12.06;80.52
72677;BME280;60755;51.374;10.662;2023-04-01T08:45:59;95456.38;;;12.20;80.05
72677;BME280;60755;51.374;10.662;2023-04-01T08:48:53;95454.28;;;11.65;80.95
72677;BME280;60755;51.374;10.662;2023-04-01T08:51:47;95467.09;;;11.10;85.15
72677;BME280;60755;51.374;10.662;2023-04-01T08:54:39;95473.72;;;11.45;84.64
72677;BME280;60755;51.374;10.662;2023-04-01T08:57:15;95465.84;;;11.27;83.37
72677;BME280;60755;51.374;10.662;2023-04-01T09:00:15;95460.75;;;11.11;85.71
72677;BME280;60755;51.374;10.662;2023-04-01T09:03:31;95468.88;;;10.67;89.49
72677;BME280;60755;51.374;10.662;2023-04-01T09:06:24;95474.41;;;10.89;87.92
72677;BME280;60755;51.374;10.662;2023-04-01T09:12:16;95468.19;;;10.56;88.87
72677;BME280;60755;51.374;10.662;2023-04-01T09:15:13;95469.84;;;10.47;88.67
72677;BME280;60755;51.374;10.662;2023-04-01T09:21:15;95484.06;;;10.12;93.31
72677;BME280;60755;51.374;10.662;2023-04-01T09:27:05;95482.53;;;10.40;89.71
72677;BME280;60755;51.374;10.662;2023-04-01T09:35:46;95480.84;;;10.78;90.26
72677;BME280;60755;51.374;10.662;2023-04-01T09:38:23;95491.53;;;10.58;89.49
72677;BME280;60755;51.374;10.662;2023-04-01T09:40:57;95488.19;;;10.52;90.38
72677;BME280;60755;51.374;10.662;2023-04-01T09:43:57;95487.00;;;10.69;89.29
72677;BME280;60755;51.374;10.662;2023-04-01T09:52:31;95499.63;;;10.38;90.55
72677;BME280;60755;51.374;10.662;2023-04-01T10:01:42;95502.97;;;10.09;92.06
72677;BME280;60755;51.374;10.662;2023-04-01T10:04:44;95506.00;;;10.26;92.25
72677;BME280;60755;51.374;10.662;2023-04-01T10:07:48;95509.81;;;10.05;92.65
72677;BME280;60755;51.374;10.662;2023-04-01T10:10:48;95511.38;;;10.45;89.70
72677;BME280;60755;51.374;10.662;2023-04-01T10:17:01;95515.13;;;10.34;90.77
72677;BME280;60755;51.374;10.662;2023-04-01T10:20:02;95506.81;;;10.27;90.31
72677;BME280;60755;51.374;10.662;2023-04-01T10:22:49;95514.16;;;10.25;92.25
72677;BME280;60755;51.374;10.662;2023-04-01T10:25:48;95512.66;;;10.14;92.43
72677;BME280;60755;51.374;10.662;2023-04-01T10:28:53;95507.88;;;10.21;92.18
72677;BME280;60755;51.374;10.662;2023-04-01T10:35:38;95511.88;;;10.76;89.36
72677;BME280;60755;51.374;10.662;2023-04-01T10:38:42;95512.09;;;10.80;88.27
72677;BME280;60755;51.374;10.662;2023-04-01T10:45:00;95511.19;;;10.36;90.65
72677;BME280;60755;51.374;10.662;2023-04-01T10:48:04;95511.31;;;10.50;90.34
72677;BME280;60755;51.374;10.662;2023-04-01T10:50:55;95512.97;;;10.41;90.33
72677;BME280;60755;51.374;10.662;2023-04-01T10:53:43;95505.19;;;10.31;89.94
72677;BME280;60755;51.374;10.662;2023-04-01T10:56:36;95510.50;;;10.21;91.32
72677;BME280;60755;51.374;10.662;2023-04-01T11:00:12;95511.00;;;10.28;89.52
72677;BME280;60755;51.374;10.662;2023-04-01T11:03:33;95512.59;;;10.24;90.88
72677;BME280;60755;51.374;10.662;2023-04-01T11:13:22;95518.34;;;10.26;92.60
72677;BME280;60755;51.374;10.662;2023-04-01T11:16:37;95518.78;;;10.38;90.10
72677;BME280;60755;51.374;10.662;2023-04-01T11:19:34;95521.28;;;10.53;90.73
72677;BME280;60755;51.374;10.662;2023-04-01T11:22:32;95523.66;;;10.79;90.68
72677;BME280;60755;51.374;10.662;2023-04-01T11:31:53;95525.84;;;11.62;85.20
72677;BME280;60755;51.374;10.662;2023-04-01T11:34:37;95518.47;;;11.64;87.03
72677;BME280;60755;51.374;10.662;2023-04-01T11:37:17;95520.28;;;11.45;87.30
72677;BME280;60755;51.374;10.662;2023-04-01T11:40:17;95524.34;;;11.80;85.71
72677;BME280;60755;51.374;10.662;2023-04-01T11:43:14;95521.13;;;12.02;84.87
72677;BME280;60755;51.374;10.662;2023-04-01T11:46:20;95537.72;;;12.21;83.61
72677;BME280;60755;51.374;10.662;2023-04-01T11:48:58;95530.75;;;12.12;83.18
72677;BME280;60755;51.374;10.662;2023-04-01T11:51:57;95531.31;;;11.90;82.82
72677;BME280;60755;51.374;10.662;2023-04-01T11:54:43;95537.84;;;11.92;84.75
72677;BME280;60755;51.374;10.662;2023-04-01T11:57:43;95538.63;;;12.30;83.52
72677;BME280;60755;51.374;10.662;2023-04-01T12:00:38;95541.06;;;11.89;85.06
72677;BME280;60755;51.374;10.662;2023-04-01T12:03:25;95539.19;;;12.09;85.61
72677;BME280;60755;51.374;10.662;2023-04-01T12:06:02;95538.00;;;12.01;83.53
72677;BME280;60755;51.374;10.662;2023-04-01T12:08:39;95537.28;;;12.14;83.66
72677;BME280;60755;51.374;10.662;2023-04-01T12:11:17;95542.25;;;11.35;84.47
72677;BME280;60755;51.374;10.662;2023-04-01T12:13:53;95545.78;;;11.68;84.77
72677;BME280;60755;51.374;10.662;2023-04-01T12:16:33;95548.41;;;11.49;86.14
72677;BME280;60755;51.374;10.662;2023-04-01T12:19:11;95546.94;;;11.14;89.57
72677;BME280;60755;51.374;10.662;2023-04-01T12:21:45;95550.16;;;11.54;86.71
72677;BME280;60755;51.374;10.662;2023-04-01T12:24:40;95554.25;;;11.65;87.98
72677;BME280;60755;51.374;10.662;2023-04-01T12:27:31;95558.88;;;11.73;85.51
72677;BME280;60755;51.374;10.662;2023-04-01T12:30:35;95558.72;;;11.65;87.16
72677;BME280;60755;51.374;10.662;2023-04-01T12:33:45;95544.06;;;11.77;86.89
72677;BME280;60755;51.374;10.662;2023-04-01T12:36:26;95551.19;;;11.58;87.39
72677;BME280;60755;51.374;10.662;2023-04-01T12:39:17;95555.31;;;11.88;84.45
72677;BME280;60755;51.374;10.662;2023-04-01T12:41:50;95552.22;;;12.00;85.95
72677;BME280;60755;51.374;10.662;2023-04-01T12:44:41;95554.25;;;12.41;82.37
72677;BME280;60755;51.374;10.662;2023-04-01T12:47:38;95552.41;;;12.41;81.84
72677;BME280;60755;51.374;10.662;2023-04-01T12:50:28;95551.78;;;12.30;83.22
72677;BME280;60755;51.374;10.662;2023-04-01T12:53:06;95556.78;;;12.13;81.91
72677;BME280;60755;51.374;10.662;2023-04-01T12:55:42;95555.66;;;11.58;84.20
72677;BME280;60755;51.374;10.662;2023-04-01T12:58:38;95560.69;;;11.06;86.50
72677;BME280;60755;51.374;10.662;2023-04-01T13:01:21;95570.72;;;11.04;87.26
72677;BME280;60755;51.374;10.662;2023-04-01T13:04:08;95571.13;;;11.16;87.49
72677;BME280;60755;51.374;10.662;2023-04-01T13:06:49;95571.13;;;11.16;87.22
72677;BME280;60755;51.374;10.662;2023-04-01T13:09:30;95579.81;;;10.88;87.45
72677;BME280;60755;51.374;10.662;2023-04-01T13:12:26;95575.47;;;11.02;86.80
72677;BME280;60755;51.374;10.662;2023-04-01T13:15:09;95584.00;;;11.18;87.04
72677;BME280;60755;51.374;10.662;2023-04-01T13:17:43;95579.63;;;11.08;87.76
72677;BME280;60755;51.374;10.662;2023-04-01T13:20:18;95585.94;;;11.07;87.01
72677;BME280;60755;51.374;10.662;2023-04-01T13:22:59;95586.38;;;11.14;88.50
72677;BME280;60755;51.374;10.662;2023-04-01T13:25:35;95586.22;;;11.30;87.37
72677;BME280;60755;51.374;10.662;2023-04-01T13:28:13;95586.13;;;11.40;88.88
72677;BME280;60755;51.374;10.662;2023-04-01T13:30:46;95589.25;;;11.42;88.11
72677;BME280;60755;51.374;10.662;2023-04-01T13:33:17;95582.63;;;11.68;87.67
72677;BME280;60755;51.374;10.662;2023-04-01T13:36:01;95587.84;;;11.73;87.91
72677;BME280;60755;51.374;10.662;2023-04-01T13:38:52;95589.56;;;11.59;87.08
72677;BME280;60755;51.374;10.662;2023-04-01T13:41:45;95595.03;;;11.63;87.96
72677;BME280;60755;51.374;10.662;2023-04-01T13:44:21;95591.47;;;11.30;89.69
72677;BME280;60755;51.374;10.662;2023-04-01T13:47:03;95593.78;;;11.36;90.29
72677;BME280;60755;51.374;10.662;2023-04-01T13:49:39;95601.28;;;11.96;87.73
72677;BME280;60755;51.374;10.662;2023-04-01T13:55:22;95598.81;;;11.81;87.72
72677;BME280;60755;51.374;10.662;2023-04-01T13:58:11;95605.81;;;12.09;87.02
72677;BME280;60755;51.374;10.662;2023-04-01T14:00:50;95608.25;;;12.06;86.20
72677;BME280;60755;51.374;10.662;2023-04-01T14:03:29;95600.59;;;12.42;84.67
72677;BME280;60755;51.374;10.662;2023-04-01T14:06:06;95599.91;;;12.36;86.08
72677;BME280;60755;51.374;10.662;2023-04-01T14:08:52;95612.28;;;12.54;82.36
72677;BME280;60755;51.374;10.662;2023-04-01T14:11:33;95601.25;;;12.52;84.33
72677;BME280;60755;51.374;10.662;2023-04-01T14:14:11;95607.56;;;12.70;81.99
72677;BME280;60755;51.374;10.662;2023-04-01T14:19:51;95604.19;;;12.32;85.66
72677;BME280;60755;51.374;10.662;2023-04-01T14:22:32;95607.50;;;12.56;84.13
72677;BME280;60755;51.374;10.662;2023-04-01T14:25:25;95611.00;;;12.52;84.81
72677;BME280;60755;51.374;10.662;2023-04-01T14:28:03;95619.06;;;12.74;84.31
72677;BME280;60755;51.374;10.662;2023-04-01T14:30:43;95611.34;;;12.97;82.00
72677;BME280;60755;51.374;10.662;2023-04-01T14:33:25;95607.84;;;13.01;81.53
72677;BME280;60755;51.374;10.662;2023-04-01T14:36:06;95606.81;;;13.16;80.70
72677;BME280;60755;51.374;10.662;2023-04-01T14:38:46;95611.75;;;13.04;80.36
72677;BME280;60755;51.374;10.662;2023-04-01T14:41:21;95618.59;;;12.72;81.38
72677;BME280;60755;51.374;10.662;2023-04-01T14:44:11;95617.41;;;12.46;82.31
72677;BME280;60755;51.374;10.662;2023-04-01T14:47:16;95632.13;;;11.66;86.43
72677;BME280;60755;51.374;10.662;2023-04-01T14:49:52;95634.47;;;11.44;88.69